Time;durP1;ratioP1;P1;durP2;ratioP2;P2;SDS_P1;SDS_P2;PMS_P1;PMS_P2;Temp;Humidity;BMP_temperature;BMP_pressure;BME280_temperature;BME280_humidity;BME280_pressure;Samples;Min_cycle;Max_cycle;Signal;HPM_P1;HPM_P2
2023/06/17 00:00:52;;;;;;;9.50;6.75;;;;;;;15.32;62.43;101606.38;5023675;28;20034;-81
2023/06/17 00:03:18;;;;;;;13.18;7.15;;;;;;;15.22;63.54;101609.88;5019878;28;20508;-81
2023/06/17 00:05:43;;;;;;;13.60;6.93;;;;;;;15.14;63.55;101608.97;5009507;28;20067;-81
2023/06/17 00:08:08;;;;;;;14.30;7.65;;;;;;;15.16;63.49;101617.81;5008971;28;20249;-81
2023/06/17 00:10:34;;;;;;;11.45;7.22;;;;;;;15.09;63.94;101616.91;5020726;28;20032;-81
2023/06/17 00:13:00;;;;;;;10.32;6.97;;;;;;;15.05;64.04;101615.13;5029869;28;20024;-81
2023/06/17 00:15:28;;;;;;;9.85;6.93;;;;;;;14.92;64.87;101610.66;5022445;28;20025;-81
2023/06/17 00:17:56;;;;;;;9.73;7.25;;;;;;;14.91;65.03;101601.84;5027286;28;20026;-81
2023/06/17 00:20:23;;;;;;;9.80;7.63;;;;;;;14.90;65.28;101597.41;5028386;28;20052;-81
2023/06/17 00:22:48;;;;;;;11.73;7.20;;;;;;;14.89;65.59;101597.41;5029126;28;20085;-81
2023/06/17 00:25:14;;;;;;;14.18;8.02;;;;;;;14.88;65.56;101592.97;5028657;28;20034;-81
2023/06/17 00:27:40;;;;;;;11.70;7.15;;;;;;;14.82;66.04;101588.53;5025005;28;20026;-81
2023/06/17 00:30:06;;;;;;;11.20;7.22;;;;;;;14.77;66.19;101588.50;5039833;28;20114;-81
2023/06/17 00:32:31;;;;;;;8.88;6.78;;;;;;;14.73;65.95;101586.72;5019235;28;20096;-81
2023/06/17 00:34:57;;;;;;;13.80;7.32;;;;;;;14.69;66.84;101584.06;5028256;28;20136;-81
2023/06/17 00:37:22;;;;;;;9.75;7.03;;;;;;;14.62;67.18;101594.59;5029042;28;20029;-81
2023/06/17 00:39:48;;;;;;;10.90;7.55;;;;;;;14.57;66.85;101596.34;5021731;28;20079;-81
2023/06/17 00:42:14;;;;;;;8.88;6.75;;;;;;;14.53;66.36;101594.56;5023811;28;20364;-81
2023/06/17 00:44:40;;;;;;;9.65;6.55;;;;;;;14.52;67.32;101594.56;5031748;28;20025;-81
2023/06/17 00:47:06;;;;;;;10.32;7.72;;;;;;;14.45;67.69;101593.63;5026733;28;20200;-81
2023/06/17 00:49:36;;;;;;;10.85;7.68;;;;;;;14.44;67.78;101598.03;5022689;28;20076;-81
2023/06/17 00:52:04;;;;;;;9.55;7.85;;;;;;;14.42;67.63;101597.16;5015621;28;20109;-80
2023/06/17 00:54:31;;;;;;;10.88;7.25;;;;;;;14.39;68.20;101589.16;5030501;28;20472;-81
2023/06/17 00:56:57;;;;;;;10.80;7.18;;;;;;;14.37;67.94;101597.97;5019333;28;20324;-81
2023/06/17 00:59:22;;;;;;;10.15;7.07;;;;;;;14.35;68.71;101597.09;5017596;28;20095;-81
2023/06/17 01:01:48;;;;;;;12.77;7.25;;;;;;;14.35;68.66;101600.63;5018561;28;20018;-81
2023/06/17 01:04:15;;;;;;;10.23;7.25;;;;;;;14.32;68.70;101598.84;5027913;28;20022;-81
2023/06/17 01:06:50;;;;;;;9.35;7.13;;;;;;;14.27;68.70;101591.75;5032244;28;20384;-81
2023/06/17 01:09:22;;;;;;;10.30;7.18;;;;;;;14.19;68.91;101583.75;5013800;28;20099;-81
2023/06/17 01:11:53;;;;;;;10.48;7.63;;;;;;;14.16;69.39;101592.56;5023200;28;20018;-81
2023/06/17 01:14:20;;;;;;;12.90;7.68;;;;;;;14.06;69.49;101589.84;5012535;28;20037;-81
2023/06/17 01:16:50;;;;;;;10.23;7.20;;;;;;;14.01;69.89;101584.53;5018235;28;20025;-81
2023/06/17 01:19:20;;;;;;;11.48;7.22;;;;;;;14.02;69.16;101588.94;5016011;28;20068;-81
2023/06/17 01:21:51;;;;;;;11.98;7.57;;;;;;;13.94;69.37;101583.56;5031803;28;20484;-81
2023/06/17 01:24:33;;;;;;;9.15;6.80;;;;;;;13.83;69.88;101582.63;5019289;28;20038;-81
2023/06/17 01:27:00;;;;;;;11.00;7.07;;;;;;;13.81;70.48;101581.69;5006258;28;20072;-81
2023/06/17 01:29:36;;;;;;;9.00;7.22;;;;;;;13.73;70.29;101584.31;5026482;28;20040;-81
2023/06/17 01:32:03;;;;;;;11.90;8.00;;;;;;;13.74;70.68;101583.41;5023672;28;20029;-81
2023/06/17 01:35:14;;;;;;;9.35;7.18;;;;;;;13.69;70.40;101578.97;5020552;28;20489;-81
2023/06/17 01:37:53;;;;;;;9.77;7.07;;;;;;;13.56;71.86;101576.22;5016662;28;20026;-81
2023/06/17 01:40:21;;;;;;;12.25;7.28;;;;;;;13.54;71.98;101570.03;5013315;28;20034;-81
2023/06/17 01:42:49;;;;;;;8.70;6.80;;;;;;;13.48;72.46;101578.78;5027147;28;20026;-81
2023/06/17 01:45:15;;;;;;;10.75;7.32;;;;;;;13.47;73.00;101578.78;5013915;28;20041;-80
2023/06/17 01:47:41;;;;;;;9.63;7.28;;;;;;;13.45;72.52;101577.88;5010807;28;20029;-81
2023/06/17 01:50:07;;;;;;;9.93;7.80;;;;;;;13.45;73.23;101569.94;5020888;28;20377;-81
2023/06/17 01:52:33;;;;;;;8.80;6.93;;;;;;;13.39;72.91;101575.16;5023088;28;20078;-81
2023/06/17 01:54:59;;;;;;;9.65;7.13;;;;;;;13.37;72.54;101576.91;5027683;28;20064;-81
2023/06/17 01:57:25;;;;;;;11.25;7.35;;;;;;;13.29;73.38;101574.16;5027198;28;20029;-81
2023/06/17 01:59:52;;;;;;;12.30;8.20;;;;;;;13.25;72.92;101573.22;5027766;28;20108;-81
2023/06/17 02:02:17;;;;;;;9.98;8.02;;;;;;;13.19;72.55;101578.47;5028422;28;20021;-81
2023/06/17 02:04:43;;;;;;;10.82;7.75;;;;;;;13.20;73.46;101580.22;5031671;28;20461;-81
2023/06/17 02:07:10;;;;;;;12.70;7.43;;;;;;;13.22;73.98;101583.78;5020528;28;20033;-81
2023/06/17 02:09:36;;;;;;;12.40;7.60;;;;;;;13.21;73.98;101581.13;5027631;28;20021;-81
2023/06/17 02:12:01;;;;;;;10.50;7.15;;;;;;;13.24;73.85;101575.88;5027903;28;20485;-81
2023/06/17 02:14:29;;;;;;;11.13;7.07;;;;;;;13.25;74.81;101572.34;5022698;28;20051;-81
2023/06/17 02:16:55;;;;;;;11.32;7.40;;;;;;;13.19;74.64;101561.69;5022091;28;20168;-81
2023/06/17 02:19:22;;;;;;;10.93;7.22;;;;;;;13.15;74.49;101563.41;5021610;28;20111;-81
2023/06/17 02:21:48;;;;;;;9.73;7.78;;;;;;;13.03;74.91;101566.84;5020647;28;20485;-81
2023/06/17 02:24:14;;;;;;;11.68;7.93;;;;;;;13.04;74.34;101567.72;5023099;28;20045;-81
2023/06/17 02:26:40;;;;;;;10.63;7.13;;;;;;;12.99;74.27;101558.00;5008347;28;20093;-81
2023/06/17 02:29:06;;;;;;;12.15;7.75;;;;;;;12.93;75.29;101562.31;5014135;28;20026;-81
2023/06/17 02:31:32;;;;;;;10.90;7.38;;;;;;;12.97;75.37;101554.44;5029482;28;20032;-81
2023/06/17 02:33:57;;;;;;;11.15;7.88;;;;;;;12.97;75.50;101554.44;5029393;28;20021;-81
2023/06/17 02:36:23;;;;;;;11.18;8.05;;;;;;;12.91;75.97;101558.75;5022158;28;20100;-81
2023/06/17 02:38:50;;;;;;;11.93;7.55;;;;;;;12.89;75.55;101563.16;5021921;28;20112;-81
2023/06/17 02:41:16;;;;;;;11.32;8.30;;;;;;;12.85;75.57;101562.22;5029484;28;20167;-81
2023/06/17 02:43:41;;;;;;;12.85;7.97;;;;;;;12.84;76.20;101557.81;5021614;28;20112;-81
2023/06/17 02:46:06;;;;;;;11.52;7.78;;;;;;;12.87;75.76;101560.47;5029554;28;20025;-81
2023/06/17 02:48:32;;;;;;;14.00;8.10;;;;;;;12.85;77.13;101553.44;5023982;28;20024;-81
2023/06/17 02:50:58;;;;;;;12.35;8.10;;;;;;;12.78;76.49;101550.69;4998433;28;20477;-81
2023/06/17 02:53:23;;;;;;;14.70;8.13;;;;;;;12.75;77.01;101549.75;5025382;28;20029;-81
2023/06/17 02:55:49;;;;;;;13.70;8.73;;;;;;;12.70;76.85;101543.53;5023239;28;20025;-81
2023/06/17 02:58:15;;;;;;;10.73;7.88;;;;;;;12.69;76.06;101547.03;5028136;28;20029;-81
2023/06/17 03:00:43;;;;;;;12.45;7.85;;;;;;;12.68;76.88;101542.66;5027326;28;20029;-81
2023/06/17 03:03:09;;;;;;;11.30;8.15;;;;;;;12.66;76.49;101546.16;5018157;28;20034;-81
2023/06/17 03:05:37;;;;;;;10.85;8.73;;;;;;;12.64;77.28;101539.06;5029218;28;20030;-80
2023/06/17 03:08:03;;;;;;;10.43;8.63;;;;;;;12.64;77.16;101539.06;5023428;28;20025;-81
2023/06/17 03:10:28;;;;;;;9.75;8.25;;;;;;;12.62;77.18;101541.69;5021769;28;20033;-81
2023/06/17 03:12:53;;;;;;;11.57;8.57;;;;;;;12.61;78.59;101545.19;5023390;28;20493;-81
2023/06/17 03:15:19;;;;;;;11.40;9.05;;;;;;;12.59;78.38;101538.13;5027969;28;20112;-81
2023/06/17 03:17:45;;;;;;;11.93;8.07;;;;;;;12.58;78.60;101539.91;5030379;28;20025;-81
2023/06/17 03:20:11;;;;;;;10.27;8.43;;;;;;;12.57;78.37;101537.19;5027363;28;20018;-81
2023/06/17 03:22:36;;;;;;;12.40;8.63;;;;;;;12.55;78.16;101533.66;5017854;28;20029;-81
2023/06/17 03:25:02;;;;;;;14.43;9.48;;;;;;;12.51;78.47;101532.75;5033960;28;20029;-81
2023/06/17 03:27:28;;;;;;;11.88;9.05;;;;;;;12.46;78.46;101532.69;5019590;28;20033;-81
2023/06/17 03:29:53;;;;;;;11.55;8.82;;;;;;;12.46;79.41;101542.34;5019311;28;20021;-81
2023/06/17 03:32:18;;;;;;;12.30;9.10;;;;;;;12.43;79.65;101537.91;5020023;28;20033;-81
2023/06/17 03:34:44;;;;;;;11.60;8.80;;;;;;;12.39;78.44;101543.16;5007438;28;20089;-81
2023/06/17 03:37:12;;;;;;;11.52;9.02;;;;;;;12.32;78.40;101535.13;5018434;28;20078;-81
2023/06/17 03:39:37;;;;;;;14.13;8.93;;;;;;;12.29;79.10;101535.13;5021248;28;20021;-81
2023/06/17 03:42:03;;;;;;;13.32;9.18;;;;;;;12.28;79.32;101535.97;5021139;28;20025;-81
2023/06/17 03:44:28;;;;;;;13.35;9.13;;;;;;;12.29;79.72;101534.19;5023818;28;20062;-81
2023/06/17 03:46:57;;;;;;;12.23;9.27;;;;;;;12.27;80.89;101539.47;5026007;28;20037;-81
2023/06/17 03:49:22;;;;;;;12.98;8.95;;;;;;;12.28;80.65;101533.34;5012775;28;20017;-81
2023/06/17 03:51:47;;;;;;;12.02;9.15;;;;;;;12.29;80.73;101535.13;5019153;28;20032;-81
2023/06/17 03:54:13;;;;;;;11.93;9.20;;;;;;;12.31;80.41;101529.84;5015836;28;20018;-81
2023/06/17 03:56:39;;;;;;;12.18;9.10;;;;;;;12.33;81.09;101531.63;5017482;28;20074;-81
2023/06/17 03:59:04;;;;;;;13.88;9.40;;;;;;;12.38;81.80;101528.16;5023947;28;20095;-81
2023/06/17 04:01:30;;;;;;;13.38;9.65;;;;;;;12.39;80.98;101532.59;5015325;28;20130;-81
2023/06/17 04:03:55;;;;;;;12.15;8.73;;;;;;;12.43;80.63;101534.41;5026090;28;20033;-81
2023/06/17 04:06:21;;;;;;;10.82;8.80;;;;;;;12.46;80.29;101521.22;4995708;28;20148;-81
2023/06/17 04:08:47;;;;;;;12.35;9.75;;;;;;;12.50;80.52;101523.94;5026320;28;20396;-81
2023/06/17 04:11:12;;;;;;;12.20;9.18;;;;;;;12.49;80.65;101521.28;5007678;28;20405;-81
2023/06/17 04:13:38;;;;;;;12.10;9.48;;;;;;;12.54;81.68;101526.59;5016952;28;20021;-81
2023/06/17 04:16:03;;;;;;;11.73;9.48;;;;;;;12.57;81.59;101534.56;5025854;28;20473;-81
2023/06/17 04:18:28;;;;;;;13.02;8.57;;;;;;;12.58;80.13;101529.31;5024531;28;20029;-81
2023/06/17 04:20:56;;;;;;;12.35;8.90;;;;;;;12.65;82.42;101538.22;5029907;28;20017;-81
2023/06/17 04:23:23;;;;;;;12.07;9.00;;;;;;;12.68;81.32;101527.66;5016344;28;20029;-81
2023/06/17 04:25:48;;;;;;;11.35;8.82;;;;;;;12.66;81.41;101532.94;5020859;28;20478;-81
2023/06/17 04:28:17;;;;;;;11.40;8.73;;;;;;;12.73;81.21;101533.03;5026676;28;20026;-81
2023/06/17 04:30:47;;;;;;;10.80;8.70;;;;;;;12.79;81.72;101527.78;5026645;28;20137;-81
2023/06/17 04:33:14;;;;;;;12.48;8.82;;;;;;;12.82;81.38;101527.84;5026261;28;20280;-81
2023/06/17 04:35:41;;;;;;;12.63;9.45;;;;;;;12.86;82.66;101524.34;5022104;28;20018;-81
2023/06/17 04:38:10;;;;;;;12.38;9.75;;;;;;;12.91;82.43;101532.31;5016474;28;20040;-81
2023/06/17 04:40:36;;;;;;;13.50;9.52;;;;;;;12.97;83.26;101532.41;5015129;28;20026;-81
2023/06/17 04:43:02;;;;;;;13.52;10.27;;;;;;;13.04;83.26;101526.28;5024020;28;20083;-81
2023/06/17 04:45:28;;;;;;;14.15;9.90;;;;;;;13.08;84.11;101530.72;5021587;28;20018;-81
2023/06/17 04:47:53;;;;;;;16.17;11.20;;;;;;;13.21;84.52;101529.09;5017444;28;20057;-81
2023/06/17 04:50:19;;;;;;;15.57;11.95;;;;;;;13.33;82.85;101534.53;5024115;28;20030;-81
2023/06/17 04:52:50;;;;;;;15.50;11.85;;;;;;;13.42;82.67;101541.69;5023692;28;20036;-81
2023/06/17 04:55:18;;;;;;;16.55;12.88;;;;;;;13.53;83.05;101538.25;5028223;28;20555;-81
2023/06/17 04:57:43;;;;;;;17.20;13.05;;;;;;;13.60;84.19;101538.31;5033565;28;20027;-81
2023/06/17 05:00:13;;;;;;;19.30;13.50;;;;;;;13.68;85.30;101535.75;5025982;28;20029;-81
2023/06/17 05:02:39;;;;;;;17.52;13.35;;;;;;;13.80;83.72;101541.13;5008763;28;20021;-81
2023/06/17 05:05:05;;;;;;;17.13;13.23;;;;;;;13.86;85.49;101548.22;5026068;28;20087;-81
2023/06/17 05:07:31;;;;;;;16.00;13.30;;;;;;;13.95;83.93;101542.97;5025980;28;20504;-81
2023/06/17 05:09:57;;;;;;;18.92;13.27;;;;;;;13.98;85.29;101548.31;5025369;28;20075;-81
2023/06/17 05:12:22;;;;;;;22.08;13.60;;;;;;;14.09;84.75;101552.78;5023100;28;20057;-81
2023/06/17 05:14:47;;;;;;;17.48;13.73;;;;;;;14.13;85.36;101550.16;5030576;28;20051;-81
2023/06/17 05:17:13;;;;;;;21.38;14.65;;;;;;;14.24;85.27;101550.22;5029736;28;20013;-81
2023/06/17 05:19:38;;;;;;;16.25;13.75;;;;;;;14.34;85.22;101551.19;5022504;28;20029;-81
2023/06/17 05:22:03;;;;;;;17.92;13.95;;;;;;;14.45;86.21;101545.94;5021730;28;20037;-81
2023/06/17 05:24:29;;;;;;;21.08;15.13;;;;;;;14.53;85.36;101541.53;5023431;28;20076;-81
2023/06/17 05:26:54;;;;;;;18.48;14.07;;;;;;;14.72;85.64;101544.28;5019139;28;20100;-81
2023/06/17 05:29:20;;;;;;;17.85;13.68;;;;;;;15.63;83.62;101550.63;5015947;28;20029;-81
2023/06/17 05:31:45;;;;;;;18.52;15.13;;;;;;;17.87;76.83;101534.56;5024983;28;20108;-81
2023/06/17 05:34:10;;;;;;;17.75;13.65;;;;;;;19.95;67.95;101536.16;5025909;28;20029;-81
2023/06/17 05:36:36;;;;;;;15.13;11.75;;;;;;;21.42;61.77;101525.91;5020373;28;20018;-81
2023/06/17 05:39:01;;;;;;;16.08;12.98;;;;;;;22.56;58.57;101527.34;5021313;28;20048;-81
2023/06/17 05:41:26;;;;;;;15.60;12.13;;;;;;;23.39;55.28;101536.44;5020332;28;20026;-81
2023/06/17 05:43:51;;;;;;;13.63;11.05;;;;;;;23.91;52.60;101526.63;5020088;28;20064;-82
2023/06/17 05:46:17;;;;;;;16.23;12.45;;;;;;;23.89;51.78;101532.97;5025376;28;20295;-83
2023/06/17 05:48:42;;;;;;;13.68;10.80;;;;;;;23.80;50.96;101531.50;5020906;28;20144;-82
2023/06/17 05:51:07;;;;;;;14.45;11.52;;;;;;;23.35;52.98;101532.09;5000631;28;20060;-82
2023/06/17 05:53:33;;;;;;;12.80;10.82;;;;;;;22.92;53.60;101531.66;5021757;28;20033;-81
2023/06/17 05:55:58;;;;;;;14.77;11.05;;;;;;;22.46;55.08;101526.75;5031441;28;20049;-82
2023/06/17 05:58:23;;;;;;;15.75;10.75;;;;;;;22.18;54.73;101523.94;5017609;28;20053;-82
2023/06/17 06:00:48;;;;;;;11.88;10.10;;;;;;;21.86;56.35;101524.84;5019117;28;20398;-82
2023/06/17 06:03:14;;;;;;;11.95;10.68;;;;;;;21.58;57.38;101531.78;5024722;28;20452;-81
2023/06/17 06:05:39;;;;;;;12.63;10.25;;;;;;;21.39;57.44;101535.81;5030381;28;20690;-81
2023/06/17 06:08:04;;;;;;;15.82;11.55;;;;;;;20.90;58.12;101540.53;5029239;28;20037;-82
2023/06/17 06:10:29;;;;;;;13.85;11.60;;;;;;;20.71;59.19;101534.72;5027283;28;20028;-81
2023/06/17 06:12:55;;;;;;;13.98;10.73;;;;;;;20.54;60.11;101537.72;5026494;28;20148;-81
2023/06/17 06:15:20;;;;;;;14.63;12.32;;;;;;;20.50;60.59;101536.03;5022747;28;20021;-81
2023/06/17 06:17:45;;;;;;;14.52;11.63;;;;;;;20.33;60.66;101539.91;5026071;28;20025;-82
2023/06/17 06:20:11;;;;;;;15.35;11.55;;;;;;;20.11;60.70;101544.81;5019669;28;20151;-81
2023/06/17 06:22:37;;;;;;;14.10;11.20;;;;;;;20.01;61.59;101537.88;5035629;28;20047;-81
2023/06/17 06:25:02;;;;;;;13.18;11.52;;;;;;;19.86;62.45;101534.56;5024764;28;20041;-82
2023/06/17 06:27:27;;;;;;;16.40;11.95;;;;;;;19.81;63.52;101536.44;5006567;28;20022;-82
2023/06/17 06:29:53;;;;;;;15.32;12.65;;;;;;;19.69;63.13;101541.97;5022569;28;20108;-81
2023/06/17 06:32:18;;;;;;;12.65;11.32;;;;;;;19.74;63.89;101540.06;5032553;28;20954;-81
2023/06/17 06:34:45;;;;;;;15.90;12.30;;;;;;;19.86;65.15;101539.91;5023965;28;20021;-82
2023/06/17 06:37:10;;;;;;;13.65;11.20;;;;;;;20.05;63.83;101544.94;5024219;28;20017;-82
2023/06/17 06:39:36;;;;;;;14.43;11.80;;;;;;;20.36;63.19;101537.19;5022207;28;20033;-81
2023/06/17 06:42:01;;;;;;;12.77;11.38;;;;;;;20.61;63.14;101533.97;4998346;28;20040;-82
2023/06/17 06:44:26;;;;;;;14.75;11.90;;;;;;;20.76;59.73;101539.03;5027846;28;20056;-81
2023/06/17 06:46:55;;;;;;;13.05;10.38;;;;;;;20.94;60.28;101537.75;5030652;28;20061;-84
2023/06/17 06:49:21;;;;;;;13.48;10.15;;;;;;;21.20;60.19;101544.31;5031509;28;20412;-84
2023/06/17 06:51:46;;;;;;;14.65;10.90;;;;;;;21.25;57.22;101539.72;5028689;28;20022;-83
2023/06/17 06:54:11;;;;;;;13.57;10.60;;;;;;;21.60;58.21;101537.13;5032476;28;20502;-82
2023/06/17 06:56:37;;;;;;;13.00;10.27;;;;;;;21.87;55.87;101540.00;5024775;28;20024;-81
2023/06/17 06:59:02;;;;;;;12.50;10.02;;;;;;;21.62;51.38;101543.31;5016454;28;20035;-82
2023/06/17 07:01:27;;;;;;;14.18;10.75;;;;;;;21.52;54.45;101534.59;5030626;28;20017;-82
2023/06/17 07:03:53;;;;;;;15.85;10.23;;;;;;;21.62;55.66;101544.19;5029515;28;20048;-82
2023/06/17 07:06:18;;;;;;;12.68;9.57;;;;;;;21.80;55.00;101539.28;5028336;28;20026;-82
2023/06/17 07:08:44;;;;;;;13.27;9.05;;;;;;;21.90;50.54;101540.78;5019076;28;20057;-82
2023/06/17 07:11:09;;;;;;;13.40;9.48;;;;;;;22.24;52.10;101534.50;5027070;28;20499;-82
2023/06/17 07:13:35;;;;;;;10.80;8.77;;;;;;;22.23;49.43;101540.78;5028027;28;20026;-82
2023/06/17 07:16:01;;;;;;;9.35;8.35;;;;;;;22.38;48.84;101541.31;5029818;28;20125;-82
2023/06/17 07:18:26;;;;;;;11.85;9.48;;;;;;;22.26;46.80;101538.00;5029444;28;20025;-82
2023/06/17 07:20:51;;;;;;;16.15;10.07;;;;;;;22.35;47.37;101536.00;5032843;28;20029;-82
2023/06/17 07:23:16;;;;;;;15.48;9.23;;;;;;;22.34;45.66;101532.44;5029387;28;20033;-82
2023/06/17 07:25:42;;;;;;;9.80;8.13;;;;;;;22.36;45.72;101536.00;5017024;28;20730;-82
2023/06/17 07:28:07;;;;;;;10.40;8.27;;;;;;;22.67;45.38;101532.41;5038533;28;20047;-82
2023/06/17 07:30:33;;;;;;;8.77;7.75;;;;;;;22.91;44.70;101536.13;5019587;28;20468;-82
2023/06/17 07:33:05;;;;;;;7.88;6.68;;;;;;;22.90;44.38;101537.06;5021971;28;20468;-83
2023/06/17 07:35:30;;;;;;;9.32;6.43;;;;;;;23.08;44.38;101537.41;5025419;28;20618;-83
2023/06/17 07:37:56;;;;;;;10.35;7.20;;;;;;;23.26;44.92;101530.63;5029099;28;20033;-82
2023/06/17 07:40:21;;;;;;;10.68;8.43;;;;;;;23.29;43.46;101538.56;5022076;28;20021;-83
2023/06/17 07:42:47;;;;;;;10.10;8.05;;;;;;;23.33;44.48;101542.91;5018372;28;20044;-83
2023/06/17 07:45:12;;;;;;;11.55;7.85;;;;;;;23.48;43.62;101537.97;5005664;28;20092;-83
2023/06/17 07:47:38;;;;;;;9.13;7.88;;;;;;;23.59;41.75;101531.28;5016383;28;20051;-81
2023/06/17 07:50:08;;;;;;;11.50;7.30;;;;;;;23.89;43.02;101525.81;5024055;28;20033;-81
2023/06/17 07:52:35;;;;;;;;;;;;;;;24.04;45.09;101528.88;5023219;28;20022;-82
2023/06/17 07:55:03;;;;;;;9.27;7.00;;;;;;;24.38;41.91;101519.56;5024877;28;20360;-82
2023/06/17 07:57:28;;;;;;;9.02;7.35;;;;;;;24.72;40.72;101521.00;5026467;28;20452;-82
2023/06/17 07:59:54;;;;;;;9.57;6.85;;;;;;;25.04;41.13;101524.22;5028294;28;20044;-82
2023/06/17 08:02:19;;;;;;;11.77;7.25;;;;;;;25.40;42.32;101521.88;5020115;28;20105;-84
2023/06/17 08:04:44;;;;;;;8.57;7.28;;;;;;;25.41;39.22;101515.50;5020207;28;20029;-83
2023/06/17 08:07:11;;;;;;;11.13;7.10;;;;;;;25.60;39.80;101512.91;5018669;28;20208;-83
2023/06/17 08:09:36;;;;;;;10.38;7.80;;;;;;;25.94;39.33;101515.94;5023737;28;20125;-83
2023/06/17 08:12:02;;;;;;;7.38;6.68;;;;;;;26.24;40.56;101515.56;5025145;28;20100;-83
2023/06/17 08:14:27;;;;;;;8.20;6.88;;;;;;;26.24;38.54;101511.03;5026118;28;20068;-83
2023/06/17 08:16:52;;;;;;;9.90;7.97;;;;;;;26.17;38.06;101509.56;5009457;28;20027;-83
2023/06/17 08:19:18;;;;;;;10.57;7.85;;;;;;;26.26;39.02;101511.84;5017681;28;20733;-83
2023/06/17 08:21:44;;;;;;;8.45;7.00;;;;;;;26.31;39.27;101508.06;5020154;28;20034;-83
2023/06/17 08:24:21;;;;;;;10.82;7.18;;;;;;;26.28;37.78;101511.78;5023784;28;20058;-83
2023/06/17 08:26:47;;;;;;;9.27;7.78;;;;;;;26.19;36.28;101510.34;5025800;28;20084;-83
2023/06/17 08:29:14;;;;;;;8.77;6.82;;;;;;;26.22;37.18;101515.63;5021771;28;20033;-83
2023/06/17 08:31:45;;;;;;;8.20;7.30;;;;;;;26.35;36.95;101509.66;5012357;28;20100;-83
2023/06/17 08:34:11;;;;;;;8.88;5.93;;;;;;;26.65;36.55;101503.78;5020717;28;20033;-83
2023/06/17 08:36:40;;;;;;;8.13;6.55;;;;;;;26.78;36.58;101513.06;5021256;28;20370;-83
2023/06/17 08:39:06;;;;;;;9.45;7.40;;;;;;;26.85;34.91;101503.72;5026730;28;20033;-83
2023/06/17 08:41:37;;;;;;;7.47;6.43;;;;;;;26.92;33.99;101510.59;5015890;28;20049;-83
2023/06/17 08:44:05;;;;;;;7.53;6.32;;;;;;;27.22;33.75;101503.72;5017652;28;20026;-84
2023/06/17 08:46:31;;;;;;;8.40;6.22;;;;;;;27.10;32.18;101497.97;5019201;28;20163;-83
2023/06/17 08:48:57;;;;;;;9.07;5.88;;;;;;;27.44;33.73;101508.97;5014814;28;20063;-82
2023/06/17 08:51:23;;;;;;;8.57;6.55;;;;;;;27.49;33.09;101506.00;5025002;28;20056;-82
2023/06/17 08:53:50;;;;;;;10.68;6.65;;;;;;;27.48;32.99;101505.16;5020159;28;20540;-82
2023/06/17 08:56:16;;;;;;;8.93;6.20;;;;;;;27.75;33.92;101502.81;5015574;28;20088;-83
2023/06/17 08:58:42;;;;;;;8.30;6.25;;;;;;;27.77;32.92;101502.75;5019197;28;20026;-83
2023/06/17 09:01:08;;;;;;;8.73;7.00;;;;;;;27.92;33.32;101499.22;5018618;28;20030;-82
2023/06/17 09:03:37;;;;;;;8.35;7.00;;;;;;;27.93;33.22;101498.28;5025071;28;20026;-83
2023/06/17 09:06:14;;;;;;;9.90;6.80;;;;;;;28.06;32.97;101493.13;5018416;28;20557;-83
2023/06/17 09:08:41;;;;;;;8.02;6.60;;;;;;;28.26;33.05;101504.69;5033460;28;20031;-83
2023/06/17 09:11:06;;;;;;;9.63;7.10;;;;;;;28.33;31.52;101497.13;5029519;28;20428;-83
2023/06/17 09:13:31;;;;;;;8.65;7.22;;;;;;;28.24;31.55;101502.06;5024457;28;20105;-83
2023/06/17 09:15:57;;;;;;;10.93;7.18;;;;;;;28.07;31.88;101494.88;5016934;28;20025;-83
2023/06/17 09:18:22;;;;;;;10.05;7.53;;;;;;;28.08;32.36;101495.72;5026626;28;20518;-83
2023/06/17 09:20:52;;;;;;;9.10;6.97;;;;;;;27.81;32.53;101488.09;5028752;28;20543;-83
2023/06/17 09:23:17;;;;;;;14.10;7.90;;;;;;;27.84;32.33;101493.34;5031179;28;20025;-82
2023/06/17 09:25:43;;;;;;;9.45;6.95;;;;;;;27.77;32.48;101492.78;5029933;28;20012;-83
2023/06/17 09:28:09;;;;;;;7.65;6.75;;;;;;;27.94;32.54;101493.72;5029518;28;20547;-83
2023/06/17 09:30:42;;;;;;;9.02;6.65;;;;;;;27.97;31.94;101495.38;5021848;28;20029;-83
2023/06/17 09:33:17;;;;;;;7.32;6.18;;;;;;;28.30;32.87;101494.53;5027241;28;20283;-84
2023/06/17 09:35:43;;;;;;;8.38;7.18;;;;;;;28.25;31.58;101498.38;5014784;28;20024;-83
2023/06/17 09:38:08;;;;;;;7.47;5.68;;;;;;;28.59;31.97;101491.09;5020851;28;20029;-83
2023/06/17 09:40:34;;;;;;;10.45;6.20;;;;;;;28.47;29.63;101486.38;5025134;28;20047;-83
2023/06/17 09:43:00;;;;;;;10.48;5.88;;;;;;;28.71;30.84;101485.97;5028645;28;20504;-83
2023/06/17 09:45:26;;;;;;;8.85;6.68;;;;;;;28.76;29.59;101486.59;5026622;28;20553;-84
2023/06/17 09:47:53;;;;;;;7.40;5.90;;;;;;;29.00;30.62;101483.41;5022578;28;20508;-84
2023/06/17 09:50:20;;;;;;;8.50;6.03;;;;;;;29.01;30.71;101482.47;5029390;28;20107;-83
2023/06/17 09:52:52;;;;;;;8.07;5.65;;;;;;;29.05;29.94;101484.03;5020815;28;20076;-83
2023/06/17 09:55:18;;;;;;;7.75;5.28;;;;;;;29.09;29.09;101486.47;5024949;28;20023;-83
2023/06/17 09:57:44;;;;;;;8.65;5.10;;;;;;;29.29;28.80;101489.00;5020130;28;20021;-83
2023/06/17 10:00:10;;;;;;;8.63;5.40;;;;;;;29.35;28.73;101484.09;5030616;28;20423;-83
2023/06/17 10:02:38;;;;;;;6.80;5.25;;;;;;;29.49;29.58;101480.56;5020520;28;20056;-83
2023/06/17 10:05:03;;;;;;;10.68;5.88;;;;;;;29.65;29.49;101488.63;5027220;28;20090;-83
2023/06/17 10:07:29;;;;;;;8.32;5.45;;;;;;;29.81;29.04;101482.25;5025738;28;20038;-83
2023/06/17 10:09:56;;;;;;;7.45;6.28;;;;;;;29.86;28.06;101482.84;5023616;28;20533;-83
2023/06/17 10:12:23;;;;;;;6.93;5.90;;;;;;;29.70;27.95;101472.06;5023870;28;20013;-84
2023/06/17 10:14:49;;;;;;;7.40;5.63;;;;;;;29.94;29.73;101480.56;5022118;28;20056;-83
2023/06/17 10:17:18;;;;;;;7.35;5.82;;;;;;;30.12;29.59;101469.50;5028080;28;20022;-83
2023/06/17 10:19:46;;;;;;;7.10;6.00;;;;;;;30.13;28.54;101476.69;5019591;28;20049;-85
2023/06/17 10:22:15;;;;;;;7.93;5.72;;;;;;;30.23;30.68;101469.69;5025814;28;20029;-83
2023/06/17 10:24:41;;;;;;;7.72;6.00;;;;;;;30.42;28.76;101470.25;5016942;28;20030;-84
2023/06/17 10:27:07;;;;;;;9.50;5.57;;;;;;;30.19;28.36;101470.84;5023813;28;20021;-83
2023/06/17 10:29:32;;;;;;;7.03;5.40;;;;;;;30.12;27.80;101464.94;5018575;28;20038;-83
2023/06/17 10:32:16;;;;;;;8.38;5.88;;;;;;;30.10;28.16;101461.47;5016717;28;20075;-83
2023/06/17 10:35:04;;;;;;;8.27;5.68;;;;;;;30.05;28.30;101461.75;5027001;28;20112;-83
2023/06/17 10:37:30;;;;;;;8.63;6.20;;;;;;;29.85;27.44;101462.97;5003607;28;20481;-84
2023/06/17 10:40:21;;;;;;;8.88;6.05;;;;;;;29.82;28.00;101457.75;5019440;28;20060;-84
2023/06/17 10:42:57;;;;;;;7.28;5.20;;;;;;;29.74;27.69;101451.88;5027507;28;20029;-83
2023/06/17 10:45:22;;;;;;;7.30;5.53;;;;;;;29.81;27.65;101455.09;5027804;28;20534;-83
2023/06/17 10:47:47;;;;;;;9.77;5.55;;;;;;;29.76;27.34;101455.41;5025254;28;20108;-83
2023/06/17 10:50:12;;;;;;;6.95;5.40;;;;;;;29.62;27.08;101455.38;5031083;28;20108;-82
2023/06/17 10:52:39;;;;;;;6.82;5.57;;;;;;;29.74;28.56;101452.78;5024319;28;20018;-84
2023/06/17 10:55:05;;;;;;;11.00;5.60;;;;;;;29.95;28.22;101457.84;5034769;28;20500;-82
2023/06/17 10:57:31;;;;;;;12.60;6.53;;;;;;;29.91;27.23;101445.44;5011564;28;20026;-84
2023/06/17 11:00:15;;;;;;;9.70;5.32;;;;;;;30.04;27.93;101442.84;5017038;28;20508;-83
2023/06/17 11:02:40;;;;;;;10.52;5.13;;;;;;;30.31;28.38;101442.03;5027498;28;20030;-83
2023/06/17 11:05:07;;;;;;;6.88;5.18;;;;;;;30.37;26.96;101439.78;5019249;28;20567;-83
2023/06/17 11:07:33;;;;;;;8.10;5.28;;;;;;;30.48;26.43;101443.69;5019648;28;20033;-83
2023/06/17 11:09:59;;;;;;;10.50;5.75;;;;;;;30.64;27.13;101435.41;5024256;28;20543;-83
2023/06/17 11:12:24;;;;;;;6.22;5.05;;;;;;;30.62;27.00;101442.78;5018760;28;20057;-83
2023/06/17 11:14:50;;;;;;;9.25;5.45;;;;;;;30.51;27.02;101429.88;5027893;28;20033;-83
2023/06/17 11:17:15;;;;;;;9.23;5.63;;;;;;;30.62;26.77;101431.91;5027965;28;20021;-85